Time;durP1;ratioP1;P1;durP2;ratioP2;P2;SDS_P1;SDS_P2;PMS_P1;PMS_P2;Temp;Humidity;BMP_temperature;BMP_pressure;BME280_temperature;BME280_humidity;BME280_pressure;Samples;Min_cycle;Max_cycle;Signal;HPM_P1;HPM_P2
2022/11/24 00:02:01;;;;;;;92.53;39.85;;;;;;;7.78;60.88;100425.75;4948136;28;98407;-65
2022/11/24 00:04:28;;;;;;;94.38;39.20;;;;;;;7.72;61.07;100436.47;4952016;28;97773;-65
2022/11/24 00:06:54;;;;;;;91.18;39.13;;;;;;;7.80;60.90;100435.34;4950094;28;99380;-65
2022/11/24 00:09:22;;;;;;;92.03;39.72;;;;;;;7.66;61.46;100436.66;4952579;28;99337;-65
2022/11/24 00:11:49;;;;;;;82.47;37.65;;;;;;;7.81;60.81;100429.16;4960629;28;97029;-64
2022/11/24 00:14:16;;;;;;;92.88;40.40;;;;;;;7.72;61.49;100426.81;4945900;28;96890;-66
2022/11/24 00:16:42;;;;;;;89.88;39.90;;;;;;;7.57;61.59;100433.38;4951518;28;99325;-64
2022/11/24 00:19:09;;;;;;;96.63;40.83;;;;;;;7.58;61.77;100435.09;4953271;28;97723;-64
2022/11/24 00:21:37;;;;;;;91.53;41.45;;;;;;;7.61;62.15;100437.63;4961060;28;97049;-65
2022/11/24 00:24:04;;;;;;;104.07;41.38;;;;;;;7.74;61.28;100434.66;4950240;28;97451;-65
2022/11/24 00:26:36;;;;;;;95.25;40.17;;;;;;;7.63;61.49;100431.47;4955377;28;99417;-65
2022/11/24 00:29:04;;;;;;;92.72;40.25;;;;;;;7.80;61.10;100437.97;4941196;28;99004;-65
2022/11/24 00:31:33;;;;;;;92.43;40.45;;;;;;;7.78;61.25;100437.16;4950018;28;97360;-66
2022/11/24 00:34:03;;;;;;;98.15;41.95;;;;;;;7.87;61.04;100430.78;4945446;28;96807;-65
2022/11/24 00:36:31;;;;;;;88.90;39.78;;;;;;;7.60;61.57;100437.69;4951903;28;99118;-65
2022/11/24 00:39:00;;;;;;;90.28;40.30;;;;;;;7.65;61.56;100430.53;4942009;28;99034;-65
2022/11/24 00:41:31;;;;;;;85.95;40.33;;;;;;;7.60;61.92;100433.28;4951726;28;96807;-66
2022/11/24 00:43:59;;;;;;;91.18;38.72;;;;;;;7.67;61.61;100433.13;4946397;28;96947;-65
2022/11/24 00:46:27;;;;;;;87.80;38.80;;;;;;;7.83;61.23;100434.38;4951865;28;101694;-65
2022/11/24 00:48:54;;;;;;;85.68;39.67;;;;;;;7.73;61.36;100423.28;4948836;28;99220;-64
2022/11/24 00:51:22;;;;;;;85.00;38.40;;;;;;;8.01;60.55;100428.56;4949543;28;96806;-66
2022/11/24 00:53:49;;;;;;;88.68;39.95;;;;;;;8.03;60.21;100429.41;4951702;28;97767;-66
2022/11/24 00:56:17;;;;;;;89.57;38.65;;;;;;;7.92;60.21;100428.88;4952015;28;97656;-66
2022/11/24 00:58:44;;;;;;;93.30;39.42;;;;;;;7.76;61.22;100431.06;4952636;28;98827;-66
2022/11/24 01:01:14;;;;;;;88.57;41.35;;;;;;;7.71;61.18;100429.47;4949597;28;97514;-66
2022/11/24 01:03:41;;;;;;;86.15;37.90;;;;;;;7.50;61.76;100429.19;4952714;28;98354;-65
2022/11/24 01:06:10;;;;;;;82.75;39.58;;;;;;;7.44;62.31;100421.47;4944957;28;99799;-66
2022/11/24 01:08:38;;;;;;;85.60;37.45;;;;;;;7.60;61.97;100424.53;4946917;28;98903;-65
2022/11/24 01:11:10;;;;;;;84.78;38.88;;;;;;;7.70;61.25;100438.28;4951274;28;96717;-65
2022/11/24 01:13:50;;;;;;;86.75;39.47;;;;;;;7.53;61.79;100438.75;4950237;28;98845;-65
2022/11/24 01:16:20;;;;;;;86.13;36.72;;;;;;;7.65;61.36;100437.53;4946362;28;100664;-65
2022/11/24 01:18:50;;;;;;;82.32;37.78;;;;;;;7.70;61.21;100448.78;4953293;28;98249;-65
2022/11/24 01:21:28;;;;;;;83.05;39.10;;;;;;;7.75;60.64;100452.16;4944576;28;96749;-64
2022/11/24 01:24:13;;;;;;;88.82;39.72;;;;;;;7.89;60.50;100456.09;4944851;28;97118;-65
2022/11/24 01:26:40;;;;;;;90.75;37.45;;;;;;;7.57;61.06;100459.66;4950543;28;99055;-66
2022/11/24 01:29:08;;;;;;;82.57;36.97;;;;;;;7.59;61.13;100460.50;4955723;28;98890;-66
2022/11/24 01:31:36;;;;;;;84.05;36.28;;;;;;;7.59;60.59;100457.00;4952988;28;96986;-65
2022/11/24 01:34:03;;;;;;;85.00;36.88;;;;;;;7.50;61.22;100442.31;4952514;28;96913;-66
2022/11/24 01:36:29;;;;;;;89.88;38.83;;;;;;;7.69;60.83;100426.03;4958908;28;98892;-66
2022/11/24 01:38:56;;;;;;;84.68;38.85;;;;;;;7.49;61.04;100432.72;4949989;28;98794;-65
2022/11/24 01:41:24;;;;;;;83.53;36.45;;;;;;;7.63;61.05;100431.47;4950023;28;96858;-66
2022/11/24 01:43:53;;;;;;;79.25;35.67;;;;;;;7.58;61.09;100429.84;4951882;28;96970;-65
2022/11/24 01:46:24;;;;;;;86.13;37.22;;;;;;;7.45;61.35;100441.59;4957512;28;97659;-66
2022/11/24 01:48:58;;;;;;;79.22;37.05;;;;;;;7.45;61.38;100452.13;4954902;28;98065;-64
2022/11/24 01:51:28;;;;;;;84.63;38.28;;;;;;;7.59;61.02;100452.59;4948941;28;99571;-66
2022/11/24 01:54:00;;;;;;;89.28;37.83;;;;;;;7.50;61.27;100447.59;4951220;28;96860;-65
2022/11/24 01:56:28;;;;;;;85.53;38.92;;;;;;;7.46;61.49;100464.34;4953515;28;99159;-64
2022/11/24 01:58:59;;;;;;;83.90;36.58;;;;;;;7.35;61.54;100478.69;4946702;28;98819;-65
2022/11/24 02:01:27;;;;;;;83.15;38.22;;;;;;;7.32;61.63;100474.38;4952403;28;97399;-65
2022/11/24 02:03:57;;;;;;;87.55;36.58;;;;;;;7.70;61.03;100475.09;4953272;28;96769;-66
2022/11/24 02:06:27;;;;;;;83.78;37.30;;;;;;;7.44;61.62;100483.69;4948919;28;101080;-64
2022/11/24 02:08:58;;;;;;;88.40;37.42;;;;;;;7.34;62.08;100480.47;4950770;28;98971;-64
2022/11/24 02:11:28;;;;;;;81.45;37.25;;;;;;;7.49;61.63;100482.66;4953782;28;99114;-64
2022/11/24 02:13:55;;;;;;;86.53;38.30;;;;;;;7.38;62.36;100487.34;4949871;28;96975;-65
2022/11/24 02:16:22;;;;;;;81.13;36.40;;;;;;;7.33;62.23;100485.75;4949020;28;99094;-65
2022/11/24 02:18:48;;;;;;;88.15;37.65;;;;;;;7.39;62.24;100486.44;4950520;28;98878;-64
2022/11/24 02:21:17;;;;;;;89.15;36.72;;;;;;;7.52;61.56;100490.47;4949765;28;98652;-65
2022/11/24 02:23:50;;;;;;;84.70;37.67;;;;;;;7.40;61.96;100488.19;4949653;28;98461;-66
2022/11/24 02:26:28;;;;;;;81.72;36.60;;;;;;;7.57;61.32;100475.44;4948109;28;99307;-64
2022/11/24 02:28:55;;;;;;;76.30;35.13;;;;;;;7.56;61.66;100478.09;4946878;28;99099;-64
2022/11/24 02:31:22;;;;;;;80.07;37.40;;;;;;;7.36;62.25;100470.75;4948754;28;96784;-66
2022/11/24 02:33:50;;;;;;;83.97;38.13;;;;;;;7.38;61.87;100489.13;4952129;28;96915;-64
2022/11/24 02:36:16;;;;;;;76.47;36.58;;;;;;;7.49;61.25;100482.66;4948126;28;98895;-65
2022/11/24 02:38:42;;;;;;;79.50;35.40;;;;;;;7.42;61.90;100488.97;4947023;28;97851;-64
2022/11/24 02:41:14;;;;;;;80.90;36.95;;;;;;;7.19;62.85;100489.59;4949748;28;99121;-64
2022/11/24 02:43:44;;;;;;;83.60;36.80;;;;;;;7.03;63.60;100490.88;4946772;28;96884;-65
2022/11/24 02:46:11;;;;;;;78.45;35.22;;;;;;;7.07;63.07;100494.31;4950278;28;99116;-64
2022/11/24 02:48:37;;;;;;;79.00;35.63;;;;;;;7.03;63.33;100503.16;4951603;28;98766;-65
2022/11/24 02:51:04;;;;;;;82.53;36.63;;;;;;;7.08;62.95;100496.91;4952927;28;96868;-65
2022/11/24 02:53:31;;;;;;;79.35;36.10;;;;;;;7.26;62.89;100492.06;4964536;28;96796;-65
2022/11/24 02:55:57;;;;;;;82.65;34.33;;;;;;;7.19;62.84;100496.63;4953966;28;99310;-65
2022/11/24 02:58:24;;;;;;;77.32;35.60;;;;;;;7.18;63.00;100489.63;4952800;28;100442;-65
2022/11/24 03:00:53;;;;;;;86.63;36.25;;;;;;;7.16;62.89;100486.16;4950841;28;96852;-65
2022/11/24 03:03:19;;;;;;;78.20;33.90;;;;;;;7.22;62.54;100475.50;4959308;28;97112;-65
2022/11/24 03:05:46;;;;;;;80.70;34.30;;;;;;;7.20;62.50;100483.44;4950722;28;99202;-65
2022/11/24 03:08:12;;;;;;;79.93;35.33;;;;;;;7.23;63.01;100474.59;4950683;28;99284;-64
2022/11/24 03:10:39;;;;;;;83.65;34.83;;;;;;;7.16;62.85;100478.28;4954620;28;96865;-66
2022/11/24 03:13:05;;;;;;;83.80;35.33;;;;;;;7.07;62.57;100489.06;4950440;28;97167;-64
2022/11/24 03:15:31;;;;;;;78.80;36.03;;;;;;;7.12;62.81;100495.06;4949935;28;99304;-65
2022/11/24 03:17:59;;;;;;;80.97;35.47;;;;;;;7.37;62.16;100488.25;4947656;28;97844;-65
2022/11/24 03:20:26;;;;;;;85.68;34.92;;;;;;;7.13;62.40;100483.63;4947617;28;96783;-65
2022/11/24 03:22:52;;;;;;;80.55;34.63;;;;;;;7.09;62.55;100488.09;4954265;28;98619;-65
2022/11/24 03:25:19;;;;;;;75.38;34.10;;;;;;;7.20;62.20;100495.72;4954460;28;99125;-65
2022/11/24 03:27:45;;;;;;;71.88;33.05;;;;;;;7.32;62.03;100497.16;4946074;28;98828;-64
2022/11/24 03:30:13;;;;;;;73.10;33.25;;;;;;;7.27;62.04;100504.31;4946618;28;96945;-64
2022/11/24 03:32:43;;;;;;;73.82;33.63;;;;;;;7.37;61.74;100518.94;4952356;28;98668;-64
2022/11/24 03:35:11;;;;;;;75.75;33.65;;;;;;;7.22;61.94;100515.78;4946315;28;98501;-67
2022/11/24 03:37:38;;;;;;;82.68;34.67;;;;;;;7.22;62.01;100516.72;4951637;28;98985;-65
2022/11/24 03:40:21;;;;;;;73.93;34.53;;;;;;;7.22;62.45;100519.34;4954016;28;96874;-65
2022/11/24 03:42:47;;;;;;;78.43;33.83;;;;;;;7.27;61.97;100526.19;4950022;28;97102;-64
2022/11/24 03:45:14;;;;;;;81.85;34.92;;;;;;;7.29;62.11;100516.50;4950538;28;99017;-64
2022/11/24 03:47:40;;;;;;;88.53;33.88;;;;;;;7.03;62.53;100518.91;4957079;28;99030;-66
2022/11/24 03:50:07;;;;;;;72.13;33.55;;;;;;;7.11;62.29;100511.72;4943676;28;96829;-65
2022/11/24 03:52:35;;;;;;;78.50;33.90;;;;;;;7.12;62.38;100513.44;4950935;28;97080;-64
2022/11/24 03:55:01;;;;;;;73.20;32.13;;;;;;;6.97;62.09;100519.06;4948487;28;99021;-66
2022/11/24 03:57:28;;;;;;;75.60;32.58;;;;;;;7.19;61.91;100525.53;4949876;28;99346;-65
2022/11/24 03:59:54;;;;;;;88.30;34.65;;;;;;;7.10;62.29;100523.13;4949348;28;96712;-65
2022/11/24 04:02:21;;;;;;;74.80;33.45;;;;;;;6.75;62.94;100524.00;4951091;28;96840;-65
2022/11/24 04:04:52;;;;;;;77.38;32.47;;;;;;;7.10;62.19;100526.59;4958059;28;99076;-65
2022/11/24 04:07:20;;;;;;;72.68;32.50;;;;;;;7.02;62.08;100536.44;4945219;28;98831;-65
2022/11/24 04:09:48;;;;;;;71.47;32.38;;;;;;;7.13;61.84;100539.69;4948101;28;97610;-65
2022/11/24 04:14:58;;;;;;;80.22;33.25;;;;;;;7.27;61.38;100547.22;4946680;28;97295;-64
2022/11/24 04:17:25;;;;;;;75.13;31.77;;;;;;;7.27;60.94;100535.84;4944916;28;99405;-64
2022/11/24 04:19:51;;;;;;;70.68;31.30;;;;;;;7.14;61.92;100535.28;4949870;28;96745;-64
2022/11/24 04:22:17;;;;;;;77.85;33.88;;;;;;;6.89;62.28;100532.41;4950399;28;96811;-64
2022/11/24 04:24:44;;;;;;;66.45;31.13;;;;;;;7.30;61.28;100539.25;4952300;28;98893;-64
2022/11/24 04:27:11;;;;;;;68.95;31.77;;;;;;;7.19;62.19;100536.91;4954746;28;97728;-65
2022/11/24 04:29:38;;;;;;;70.32;31.10;;;;;;;7.18;61.17;100529.91;4955517;28;96787;-65
2022/11/24 04:32:05;;;;;;;72.55;33.55;;;;;;;7.45;60.75;100522.22;4956457;28;96794;-65
2022/11/24 04:34:31;;;;;;;72.75;31.10;;;;;;;7.12;61.13;100522.19;4955831;28;98895;-66
2022/11/24 04:36:58;;;;;;;71.10;32.47;;;;;;;7.43;60.98;100519.63;4946377;28;98214;-64
2022/11/24 04:39:24;;;;;;;70.22;33.40;;;;;;;7.28;60.81;100522.69;4949802;28;96914;-64
2022/11/24 04:41:51;;;;;;;74.82;32.92;;;;;;;7.28;61.41;100532.31;4942235;28;97644;-64
2022/11/24 04:44:19;;;;;;;72.15;33.20;;;;;;;6.95;61.82;100553.28;4946741;28;98258;-65
2022/11/24 04:46:45;;;;;;;72.90;33.40;;;;;;;7.06;62.15;100553.00;4944576;28;98843;-65
2022/11/24 04:49:12;;;;;;;75.97;31.95;;;;;;;7.13;61.73;100562.47;4953613;28;99022;-64
2022/11/24 04:51:38;;;;;;;77.43;33.35;;;;;;;6.97;62.33;100564.59;4959228;28;96995;-65
2022/11/24 04:54:06;;;;;;;72.97;31.73;;;;;;;7.10;62.01;100563.41;4953158;28;99128;-65
2022/11/24 04:56:32;;;;;;;74.78;32.47;;;;;;;7.29;61.77;100562.94;4947424;28;99626;-65
2022/11/24 04:58:58;;;;;;;76.60;31.80;;;;;;;7.20;61.90;100575.44;4949560;28;96926;-66
2022/11/24 05:01:26;;;;;;;70.60;31.60;;;;;;;7.31;61.45;100583.03;4945168;28;98747;-66
2022/11/24 05:03:54;;;;;;;74.85;32.95;;;;;;;7.16;61.13;100584.25;4950269;28;99256;-64
2022/11/24 05:06:20;;;;;;;69.30;30.33;;;;;;;7.03;61.26;100587.22;4946523;28;98870;-65
2022/11/24 05:08:46;;;;;;;60.20;29.50;;;;;;;6.87;62.04;100591.97;4952968;28;97807;-65
2022/11/24 05:11:13;;;;;;;65.00;29.95;;;;;;;6.85;62.06;100588.50;4956395;28;96865;-64
2022/11/24 05:13:40;;;;;;;66.18;30.77;;;;;;;6.87;62.15;100586.72;4957318;28;99605;-65
2022/11/24 05:16:06;;;;;;;69.82;31.45;;;;;;;6.83;62.27;100597.34;4958986;28;99217;-64
2022/11/24 05:18:35;;;;;;;62.67;29.35;;;;;;;6.62;62.88;100593.44;4955571;28;97807;-65
2022/11/24 05:21:01;;;;;;;71.22;30.98;;;;;;;7.02;61.69;100590.78;4951821;28;97195;-64
2022/11/24 05:23:28;;;;;;;65.65;30.85;;;;;;;6.86;62.88;100597.25;4951578;28;99571;-64
2022/11/24 05:25:54;;;;;;;67.90;30.45;;;;;;;6.86;62.10;100598.13;4955942;28;99003;-65
2022/11/24 05:28:20;;;;;;;74.45;31.60;;;;;;;6.95;62.00;100604.94;4952162;28;96708;-64
2022/11/24 05:30:46;;;;;;;67.47;30.30;;;;;;;7.06;61.88;100608.19;4956664;28;97322;-64
2022/11/24 05:33:17;;;;;;;64.85;29.70;;;;;;;6.98;61.89;100607.47;4952758;28;97734;-65
2022/11/24 05:35:46;;;;;;;65.97;30.20;;;;;;;6.90;61.60;100606.78;4956812;28;98932;-64
2022/11/24 05:38:12;;;;;;;63.92;30.25;;;;;;;7.05;61.60;100612.56;4949739;28;97057;-65
2022/11/24 05:40:39;;;;;;;62.88;29.27;;;;;;;7.02;61.62;100617.88;4945942;28;97346;-67
2022/11/24 05:43:10;;;;;;;62.53;28.70;;;;;;;7.09;61.67;100615.97;4956241;28;98878;-66
2022/11/24 05:45:37;;;;;;;56.15;27.35;;;;;;;7.31;61.15;100611.94;4951151;28;98952;-65
2022/11/24 05:48:05;;;;;;;65.82;29.42;;;;;;;7.37;60.16;100616.19;4944579;28;96654;-65
2022/11/24 05:50:31;;;;;;;61.42;28.70;;;;;;;7.39;60.33;100615.25;4948098;28;96997;-64
2022/11/24 05:53:03;;;;;;;60.47;28.42;;;;;;;7.19;60.69;100620.13;4951648;28;99243;-65
2022/11/24 05:55:30;;;;;;;58.15;26.92;;;;;;;7.13;60.52;100612.41;4948125;28;99161;-65
2022/11/24 05:57:58;;;;;;;61.10;26.92;;;;;;;7.10;60.58;100615.94;4953053;28;96957;-65
2022/11/24 06:00:24;;;;;;;55.92;26.35;;;;;;;6.99;61.13;100623.22;4951144;28;97763;-65
2022/11/24 06:02:51;;;;;;;57.72;27.75;;;;;;;6.97;62.03;100624.16;4959151;28;98937;-68
2022/11/24 06:05:17;;;;;;;61.70;27.58;;;;;;;6.99;61.36;100631.09;4948129;28;98800;-65
2022/11/24 06:07:43;;;;;;;60.38;27.33;;;;;;;7.12;60.96;100623.81;4953866;28;97169;-66
2022/11/24 06:10:11;;;;;;;59.75;27.85;;;;;;;6.94;61.11;100632.97;4949875;28;96892;-66
2022/11/24 06:12:37;;;;;;;58.72;26.55;;;;;;;6.61;61.62;100637.19;4945964;28;98940;-67
2022/11/24 06:15:05;;;;;;;64.55;27.58;;;;;;;6.86;61.54;100634.91;4949974;28;98835;-64
2022/11/24 06:17:31;;;;;;;60.78;27.05;;;;;;;6.82;61.48;100630.63;4956471;28;98990;-70
2022/11/24 06:19:57;;;;;;;62.28;28.45;;;;;;;6.80;61.84;100645.53;4949901;28;98922;-66
2022/11/24 06:22:24;;;;;;;61.67;26.20;;;;;;;6.76;61.83;100657.84;4956499;28;98862;-65
2022/11/24 06:24:50;;;;;;;56.75;27.27;;;;;;;6.76;61.87;100657.84;4953040;28;99088;-64
2022/11/24 06:27:18;;;;;;;59.72;26.73;;;;;;;6.57;62.30;100667.03;4955540;28;97071;-66
2022/11/24 06:29:45;;;;;;;56.47;26.23;;;;;;;6.91;61.19;100668.94;4950719;28;102278;-65
2022/11/24 06:32:11;;;;;;;61.05;26.50;;;;;;;6.87;61.38;100670.78;4948647;28;98959;-64
2022/11/24 06:34:38;;;;;;;54.70;25.50;;;;;;;6.60;61.85;100668.72;4950534;28;99332;-66
2022/11/24 06:37:06;;;;;;;54.47;24.90;;;;;;;6.95;60.56;100668.00;4944664;28;96985;-70
2022/11/24 06:39:33;;;;;;;64.72;27.50;;;;;;;7.06;60.48;100673.88;4954007;28;98612;-69
2022/11/24 06:42:00;;;;;;;52.08;24.48;;;;;;;6.94;60.60;100684.66;4957045;28;98999;-70
2022/11/24 06:44:27;;;;;;;60.08;28.23;;;;;;;6.86;61.05;100678.69;4951998;28;98974;-69
2022/11/24 06:46:54;;;;;;;49.35;23.77;;;;;;;7.09;60.54;100681.66;4944635;28;96970;-71
2022/11/24 06:49:20;;;;;;;58.80;25.95;;;;;;;6.95;60.72;100668.00;4948066;28;99175;-69
2022/11/24 06:51:46;;;;;;;54.42;24.90;;;;;;;6.92;60.63;100668.03;4953676;28;98919;-70
2022/11/24 06:54:15;;;;;;;54.08;24.67;;;;;;;6.60;61.61;100671.34;4953649;28;98748;-69
2022/11/24 06:56:41;;;;;;;59.63;25.85;;;;;;;6.76;61.21;100668.38;4945857;28;96868;-69
2022/11/24 06:59:13;;;;;;;58.53;26.50;;;;;;;6.83;61.15;100669.09;4951554;28;96945;-68
2022/11/24 07:01:41;;;;;;;51.97;24.27;;;;;;;6.94;60.68;100684.66;4950697;28;99376;-70
2022/11/24 07:04:09;;;;;;;48.83;24.02;;;;;;;7.29;59.71;100684.72;4942685;28;99012;-69
2022/11/24 07:06:35;;;;;;;56.78;25.27;;;;;;;7.06;60.30;100681.75;4947064;28;96777;-68
2022/11/24 07:09:01;;;;;;;55.63;24.15;;;;;;;7.03;60.25;100677.41;4942828;28;98717;-70
2022/11/24 07:11:28;;;;;;;60.50;25.52;;;;;;;7.22;60.03;100685.75;4942815;28;98934;-69
2022/11/24 07:13:54;;;;;;;63.72;25.95;;;;;;;7.14;60.79;100690.34;4940407;28;99451;-68
2022/11/24 07:16:23;;;;;;;56.20;26.45;;;;;;;7.10;60.38;100699.16;4943834;28;97507;-69
2022/11/24 07:18:52;;;;;;;56.63;25.75;;;;;;;7.21;59.97;100691.94;4941956;28;97269;-69
2022/11/24 07:21:19;;;;;;;57.22;26.13;;;;;;;7.23;60.02;100695.38;4941411;28;98912;-69
2022/11/24 07:23:48;;;;;;;52.10;23.92;;;;;;;7.11;59.95;100696.50;4945744;28;98877;-70
2022/11/24 07:26:14;;;;;;;55.90;24.95;;;;;;;7.28;59.71;100698.78;4947028;28;97575;-68
2022/11/24 07:28:41;;;;;;;47.90;24.30;;;;;;;7.39;59.58;100703.78;4950095;28;97032;-69
2022/11/24 07:31:09;;;;;;;54.13;26.05;;;;;;;7.35;59.40;100704.75;4954211;28;99059;-69
2022/11/24 07:33:36;;;;;;;54.28;25.55;;;;;;;7.40;59.03;100702.88;4958307;28;98891;-70
2022/11/24 07:36:05;;;;;;;54.40;24.90;;;;;;;7.35;59.16;100715.28;4951164;28;97057;-69
2022/11/24 07:38:33;;;;;;;53.92;25.20;;;;;;;7.52;58.94;100715.72;4951094;28;96860;-69
2022/11/24 07:41:00;;;;;;;55.75;25.80;;;;;;;7.36;58.91;100717.84;4948267;28;99186;-70
2022/11/24 07:43:27;;;;;;;55.53;25.35;;;;;;;7.26;58.97;100721.59;4951556;28;97807;-69
2022/11/24 07:45:53;;;;;;;61.10;25.08;;;;;;;7.33;59.11;100723.19;4952311;28;97945;-70
2022/11/24 07:48:20;;;;;;;52.72;24.20;;;;;;;7.53;58.99;100728.00;4950640;28;96848;-69
2022/11/24 07:50:46;;;;;;;56.92;26.38;;;;;;;7.68;58.78;100724.97;4949951;28;99010;-69
2022/11/24 07:53:14;;;;;;;56.92;24.38;;;;;;;7.68;58.40;100730.22;4947696;28;98842;-69
2022/11/24 07:55:40;;;;;;;55.65;24.75;;;;;;;7.49;59.20;100731.56;4945334;28;97527;-69
2022/11/24 07:58:07;;;;;;;56.13;24.88;;;;;;;7.53;59.38;100728.84;4950549;28;96951;-69
2022/11/24 08:00:33;;;;;;;58.40;26.83;;;;;;;7.48;59.57;100729.88;4950451;28;99030;-70
2022/11/24 08:02:59;;;;;;;66.15;26.15;;;;;;;7.38;59.84;100726.56;4952372;28;100989;-69
2022/11/24 08:05:26;;;;;;;60.50;26.92;;;;;;;7.72;59.80;100728.41;4959482;28;96808;-69
2022/11/24 08:07:52;;;;;;;60.10;27.48;;;;;;;7.67;59.58;100722.41;4961711;28;96874;-70
2022/11/24 08:10:20;;;;;;;61.10;27.83;;;;;;;7.72;59.21;100726.66;4950261;28;98962;-69
2022/11/24 08:12:46;;;;;;;73.75;28.70;;;;;;;7.75;59.23;100730.94;4948972;28;99182;-69
2022/11/24 08:15:12;;;;;;;68.07;28.85;;;;;;;7.82;59.10;100728.13;4951993;28;98705;-69
2022/11/24 08:17:39;;;;;;;67.72;28.60;;;;;;;7.87;59.25;100728.06;4951300;28;97020;-69
2022/11/24 08:20:07;;;;;;;61.53;26.60;;;;;;;8.08;58.70;100732.75;4949036;28;98912;-69
2022/11/24 08:22:33;;;;;;;62.55;28.25;;;;;;;8.20;58.20;100745.63;4952896;28;98806;-71
2022/11/24 08:25:00;;;;;;;62.17;27.42;;;;;;;8.08;58.11;100745.91;4950037;28;96872;-69
2022/11/24 08:27:27;;;;;;;63.65;27.45;;;;;;;8.23;57.64;100744.66;4944772;28;96769;-69
2022/11/24 08:29:54;;;;;;;58.13;26.95;;;;;;;7.84;59.00;100738.63;4952559;28;98172;-69
2022/11/24 08:32:20;;;;;;;62.60;27.92;;;;;;;8.17;58.23;100742.19;4950721;28;99062;-69
2022/11/24 08:34:46;;;;;;;64.32;27.02;;;;;;;8.16;58.29;100741.31;4951155;28;96775;-69
2022/11/24 08:37:12;;;;;;;57.85;26.67;;;;;;;7.89;58.84;100739.38;4951084;28;97507;-69
2022/11/24 08:39:39;;;;;;;58.25;26.23;;;;;;;8.02;58.79;100746.94;4957423;28;98963;-69
2022/11/24 08:42:05;;;;;;;54.55;26.35;;;;;;;8.25;58.36;100756.91;4948898;28;98901;-69
2022/11/24 08:44:33;;;;;;;54.92;26.30;;;;;;;8.28;57.74;100755.94;4943944;28;96835;-69
2022/11/24 08:46:59;;;;;;;58.17;25.48;;;;;;;8.28;57.96;100750.66;4951308;28;96953;-70
2022/11/24 08:49:26;;;;;;;58.67;25.63;;;;;;;8.23;58.68;100742.91;4957230;28;98915;-69
2022/11/24 08:51:52;;;;;;;57.70;26.02;;;;;;;8.36;58.33;100739.06;4948466;28;97761;-71
2022/11/24 08:54:20;;;;;;;53.78;25.60;;;;;;;8.25;58.27;100748.13;4957652;28;98079;-70
2022/11/24 08:56:49;;;;;;;58.72;25.10;;;;;;;8.37;58.30;100748.69;4951658;28;96770;-69
2022/11/24 08:59:16;;;;;;;63.53;26.10;;;;;;;8.32;58.41;100745.34;4952489;28;98942;-70
2022/11/24 09:01:43;;;;;;;56.10;25.75;;;;;;;7.98;59.55;100749.69;4947969;28;98862;-70
2022/11/24 09:04:10;;;;;;;52.05;24.80;;;;;;;8.20;58.88;100756.16;4941168;28;97401;-70
2022/11/24 09:06:36;;;;;;;54.90;27.92;;;;;;;8.50;58.82;100764.19;4954019;28;97079;-70
2022/11/24 09:09:03;;;;;;;74.03;35.40;;;;;;;8.35;58.51;100768.94;4951297;28;99025;-69
2022/11/24 09:11:30;;;;;;;58.53;25.75;;;;;;;8.56;58.22;100775.41;4950897;28;99428;-69
2022/11/24 09:13:57;;;;;;;53.03;26.42;;;;;;;8.44;58.15;100774.88;4954839;28;97237;-69
2022/11/24 09:16:25;;;;;;;53.17;25.55;;;;;;;8.40;58.58;100776.72;4941847;28;97707;-68
2022/11/24 09:18:56;;;;;;;50.63;25.63;;;;;;;8.57;57.63;100782.41;4944697;28;99538;-69
2022/11/24 09:21:26;;;;;;;50.05;24.85;;;;;;;8.48;57.38;100781.78;4946236;28;99285;-69
2022/11/24 09:23:53;;;;;;;53.55;25.02;;;;;;;8.64;57.79;100777.84;4953998;28;96864;-69
2022/11/24 09:26:21;;;;;;;54.35;24.40;;;;;;;8.77;56.95;100785.38;4950581;28;97384;-71
2022/11/24 09:28:49;;;;;;;51.80;25.52;;;;;;;9.00;56.38;100781.22;4951254;28;98996;-69
2022/11/24 09:31:17;;;;;;;52.30;25.50;;;;;;;8.56;57.72;100782.44;4952095;28;100667;-69
2022/11/24 09:33:45;;;;;;;59.42;27.13;;;;;;;8.60;57.96;100790.22;4942352;28;98060;-70
2022/11/24 09:36:14;;;;;;;54.83;24.58;;;;;;;8.63;57.82;100782.25;4950720;28;96967;-70
2022/11/24 09:38:40;;;;;;;56.50;27.70;;;;;;;8.56;57.54;100779.81;4946443;28;98882;-69
2022/11/24 09:41:45;;;;;;;55.88;27.25;;;;;;;9.04;56.54;100783.75;4950934;28;99091;-69
2022/11/24 09:44:31;;;;;;;56.33;27.13;;;;;;;8.80;57.37;100793.19;4948665;28;97888;-69
2022/11/24 09:47:06;;;;;;;49.78;25.45;;;;;;;9.20;55.95;100799.97;4949177;28;98016;-69
2022/11/24 09:49:41;;;;;;;53.50;25.25;;;;;;;9.27;55.83;100808.56;4945640;28;99043;-69
2022/11/24 09:52:13;;;;;;;55.45;25.38;;;;;;;9.00;56.62;100804.94;4949666;28;99231;-69
2022/11/24 09:54:50;;;;;;;53.35;25.67;;;;;;;8.75;56.96;100802.97;4949503;28;96983;-71
2022/11/24 09:57:18;;;;;;;55.58;25.83;;;;;;;9.37;55.75;100804.75;4952263;28;96841;-70
2022/11/24 09:59:46;;;;;;;54.63;26.23;;;;;;;9.37;55.91;100815.31;4943476;28;99924;-69
2022/11/24 10:02:13;;;;;;;53.25;24.85;;;;;;;9.59;55.22;100805.81;4948485;28;98865;-69
2022/11/24 10:04:43;;;;;;;52.05;24.05;;;;;;;9.62;54.58;100797.81;4950922;28;97197;-71
2022/11/24 10:07:26;;;;;;;47.88;24.80;;;;;;;9.64;54.80;100793.38;4952201;28;97463;-69
2022/11/24 10:10:02;;;;;;;44.60;22.45;;;;;;;9.36;55.59;100800.38;4949675;28;100021;-70
2022/11/24 10:12:45;;;;;;;47.65;23.92;;;;;;;9.60;54.96;100797.00;4956449;28;98782;-69
2022/11/24 10:15:33;;;;;;;46.63;23.55;;;;;;;9.72;55.05;100809.81;4944658;28;98426;-71
2022/11/24 10:18:47;;;;;;;48.97;24.65;;;;;;;9.61;55.25;100796.09;4951446;28;98006;-69
2022/11/24 10:21:32;;;;;;;61.15;24.05;;;;;;;9.41;55.36;100787.91;4888154;28;100066;-70
2022/11/24 10:24:22;;;;;;;44.97;23.30;;;;;;;9.48;55.05;100792.97;4947008;28;98906;-69
2022/11/24 10:26:54;;;;;;;50.80;24.60;;;;;;;9.65;54.80;100810.06;4947844;28;96914;-70
2022/11/24 10:29:26;;;;;;;40.83;22.30;;;;;;;9.58;54.83;100817.31;4949901;28;96791;-70
2022/11/24 10:31:55;;;;;;;48.55;24.73;;;;;;;9.68;55.27;100817.88;4949860;28;98887;-69
2022/11/24 10:34:27;;;;;;;45.17;24.25;;;;;;;9.85;54.74;100811.16;4952793;28;99178;-69
2022/11/24 10:36:58;;;;;;;49.33;25.65;;;;;;;9.57;55.29;100813.81;4948641;28;96873;-69
2022/11/24 10:39:31;;;;;;;48.88;25.00;;;;;;;9.71;54.54;100823.06;4951114;28;98594;-69
2022/11/24 10:42:02;;;;;;;49.78;24.83;;;;;;;9.63;55.07;100820.66;4948834;28;99084;-70
2022/11/24 10:44:29;;;;;;;47.75;24.35;;;;;;;9.52;55.02;100815.69;4942198;28;99170;-69
2022/11/24 10:46:56;;;;;;;52.72;24.50;;;;;;;9.37;55.97;100812.66;4951032;28;97198;-69
2022/11/24 10:49:26;;;;;;;50.95;24.00;;;;;;;9.34;55.81;100810.09;4953094;28;97095;-69
2022/11/24 10:52:04;;;;;;;50.00;25.30;;;;;;;9.41;55.94;100809.03;4948316;28;98901;-69
2022/11/24 10:54:34;;;;;;;46.13;25.02;;;;;;;9.37;56.15;100812.66;4952678;28;98873;-71
2022/11/24 10:57:01;;;;;;;56.50;26.50;;;;;;;9.51;56.19;100806.09;4952083;28;97239;-69
2022/11/24 10:59:34;;;;;;;52.65;25.50;;;;;;;9.53;55.84;100816.56;4947070;28;97378;-69
2022/11/24 11:02:00;;;;;;;49.95;25.20;;;;;;;9.77;55.78;100823.75;4947707;28;98898;-65
2022/11/24 11:04:29;;;;;;;51.28;25.60;;;;;;;9.84;55.59;100813.88;4952972;28;99066;-65
2022/11/24 11:07:24;;;;;;;50.38;25.85;;;;;;;9.86;56.12;100812.88;4948776;28;97354;-66
2022/11/24 11:10:20;;;;;;;51.25;25.55;;;;;;;10.10;55.18;100813.03;4902538;28;97356;-66
2022/11/24 11:12:46;;;;;;;55.53;26.60;;;;;;;10.60;53.90;100816.66;4947797;28;99528;-65
2022/11/24 11:15:24;;;;;;;52.13;27.52;;;;;;;10.51;54.13;100815.19;4949011;28;99236;-64
2022/11/24 11:17:56;;;;;;;50.38;25.55;;;;;;;10.48;54.30;100820.59;4946475;28;97294;-65
2022/11/24 11:20:26;;;;;;;49.03;25.45;;;;;;;10.65;53.50;100818.22;4945578;28;97832;-64
2022/11/24 11:22:54;;;;;;;48.55;26.48;;;;;;;10.60;53.65;100820.16;4950236;28;99034;-65
2022/11/24 11:25:26;;;;;;;54.20;25.35;;;;;;;10.88;53.34;100821.84;4952750;28;98599;-66
2022/11/24 11:28:16;;;;;;;47.90;25.40;;;;;;;11.17;52.15;100813.72;4952543;28;97689;-66